sensor_id;sensor_type;location;lat;lon;timestamp;pressure;altitude;pressure_sealevel;temperature;humidity
71774;BME280;59607;52.130;5.430;2023-08-06T00:01:30;100533.22;;;15.21;100.00
71774;BME280;59607;52.130;5.430;2023-08-06T00:04:00;100532.41;;;15.20;100.00
71774;BME280;59607;52.130;5.430;2023-08-06T00:06:29;100528.16;;;15.19;100.00
71774;BME280;59607;52.130;5.430;2023-08-06T00:08:58;100538.72;;;15.19;100.00
71774;BME280;59607;52.130;5.430;2023-08-06T00:11:28;100534.44;;;15.18;100.00
71774;BME280;59607;52.130;5.430;2023-08-06T00:13:54;100527.53;;;15.17;100.00
71774;BME280;59607;52.130;5.430;2023-08-06T00:16:21;100531.19;;;15.16;100.00
71774;BME280;59607;52.130;5.430;2023-08-06T00:18:52;100531.59;;;15.20;100.00
71774;BME280;59607;52.130;5.430;2023-08-06T00:21:18;100532.59;;;15.18;100.00
71774;BME280;59607;52.130;5.430;2023-08-06T00:23:45;100530.78;;;15.19;100.00
71774;BME280;59607;52.130;5.430;2023-08-06T00:26:16;100529.34;;;15.23;100.00
71774;BME280;59607;52.130;5.430;2023-08-06T00:28:42;100531.00;;;15.24;100.00
71774;BME280;59607;52.130;5.430;2023-08-06T00:31:08;100525.72;;;15.24;100.00
71774;BME280;59607;52.130;5.430;2023-08-06T00:33:41;100521.22;;;15.25;100.00
71774;BME280;59607;52.130;5.430;2023-08-06T00:36:07;100528.38;;;15.24;100.00
71774;BME280;59607;52.130;5.430;2023-08-06T00:38:37;100520.44;;;15.24;100.00
71774;BME280;59607;52.130;5.430;2023-08-06T00:41:03;100520.22;;;15.26;100.00
71774;BME280;59607;52.130;5.430;2023-08-06T00:43:30;100530.38;;;15.22;100.00
71774;BME280;59607;52.130;5.430;2023-08-06T00:45:56;100525.91;;;15.23;100.00
71774;BME280;59607;52.130;5.430;2023-08-06T00:48:23;100515.75;;;15.20;100.00
71774;BME280;59607;52.130;5.430;2023-08-06T00:50:52;100520.00;;;15.21;100.00
71774;BME280;59607;52.130;5.430;2023-08-06T00:53:19;100521.03;;;15.20;100.00
71774;BME280;59607;52.130;5.430;2023-08-06T00:55:55;100526.72;;;15.23;100.00
71774;BME280;59607;52.130;5.430;2023-08-06T00:58:22;100522.06;;;15.25;100.00
71774;BME280;59607;52.130;5.430;2023-08-06T01:00:59;100522.06;;;15.25;100.00
71774;BME280;59607;52.130;5.430;2023-08-06T01:03:26;100527.94;;;15.27;100.00
71774;BME280;59607;52.130;5.430;2023-08-06T01:06:05;100519.41;;;15.25;100.00
71774;BME280;59607;52.130;5.430;2023-08-06T01:09:01;100520.44;;;15.24;100.00
71774;BME280;59607;52.130;5.430;2023-08-06T01:14:14;100516.75;;;15.25;100.00
71774;BME280;59607;52.130;5.430;2023-08-06T01:16:45;100508.03;;;15.25;100.00
71774;BME280;59607;52.130;5.430;2023-08-06T01:19:18;100520.22;;;15.26;100.00
71774;BME280;59607;52.130;5.430;2023-08-06T01:21:52;100513.91;;;15.27;100.00
71774;BME280;59607;52.130;5.430;2023-08-06T01:24:33;100510.66;;;15.25;100.00
71774;BME280;59607;52.130;5.430;2023-08-06T01:27:12;100514.53;;;15.29;100.00
71774;BME280;59607;52.130;5.430;2023-08-06T01:29:49;100513.50;;;15.30;100.00
71774;BME280;59607;52.130;5.430;2023-08-06T01:32:26;100513.50;;;15.30;100.00
71774;BME280;59607;52.130;5.430;2023-08-06T01:34:55;100513.91;;;15.27;100.00
71774;BME280;59607;52.130;5.430;2023-08-06T01:37:23;100515.38;;;15.29;100.00
71774;BME280;59607;52.130;5.430;2023-08-06T01:39:54;100519.63;;;15.30;100.00
71774;BME280;59607;52.130;5.430;2023-08-06T01:42:20;100513.09;;;15.26;100.00
71774;BME280;59607;52.130;5.430;2023-08-06T01:44:50;100514.31;;;15.24;100.00
71774;BME280;59607;52.130;5.430;2023-08-06T01:47:17;100523.06;;;15.24;100.00
71774;BME280;59607;52.130;5.430;2023-08-06T01:49:43;100514.53;;;15.22;100.00
71774;BME280;59607;52.130;5.430;2023-08-06T01:52:10;100517.78;;;15.24;100.00
71774;BME280;59607;52.130;5.430;2023-08-06T01:54:36;100516.16;;;15.23;100.00
71774;BME280;59607;52.130;5.430;2023-08-06T01:57:07;100521.63;;;15.22;100.00
71774;BME280;59607;52.130;5.430;2023-08-06T01:59:35;100519.81;;;15.22;100.00
71774;BME280;59607;52.130;5.430;2023-08-06T02:02:04;100521.44;;;15.23;100.00
71774;BME280;59607;52.130;5.430;2023-08-06T02:04:31;100523.28;;;15.23;100.00
71774;BME280;59607;52.130;5.430;2023-08-06T02:07:04;100532.41;;;15.20;100.00
71774;BME280;59607;52.130;5.430;2023-08-06T02:09:34;100528.53;;;15.16;100.00
71774;BME280;59607;52.130;5.430;2023-08-06T02:12:05;100527.94;;;15.14;100.00
71774;BME280;59607;52.130;5.430;2023-08-06T02:14:32;100525.50;;;15.12;100.00
71774;BME280;59607;52.130;5.430;2023-08-06T02:16:58;100523.88;;;15.11;100.00
71774;BME280;59607;52.130;5.430;2023-08-06T02:19:28;100524.28;;;15.15;100.00
71774;BME280;59607;52.130;5.430;2023-08-06T02:21:55;100526.50;;;15.11;100.00
71774;BME280;59607;52.130;5.430;2023-08-06T02:24:22;100522.44;;;15.09;100.00
71774;BME280;59607;52.130;5.430;2023-08-06T02:26:48;100525.06;;;15.09;100.00
71774;BME280;59607;52.130;5.430;2023-08-06T02:29:25;100522.22;;;15.10;100.00
71774;BME280;59607;52.130;5.430;2023-08-06T02:31:52;100517.34;;;15.07;100.00
71774;BME280;59607;52.130;5.430;2023-08-06T02:34:21;100514.69;;;15.07;100.00
71774;BME280;59607;52.130;5.430;2023-08-06T02:36:48;100511.66;;;15.03;100.00
71774;BME280;59607;52.130;5.430;2023-08-06T02:39:16;100514.31;;;15.03;100.00
71774;BME280;59607;52.130;5.430;2023-08-06T02:41:45;100514.31;;;15.03;100.00
71774;BME280;59607;52.130;5.430;2023-08-06T02:44:12;100518.56;;;15.04;100.00
71774;BME280;59607;52.130;5.430;2023-08-06T02:46:38;100515.31;;;15.02;100.00
71774;BME280;59607;52.130;5.430;2023-08-06T02:49:10;100514.31;;;15.03;100.00
71774;BME280;59607;52.130;5.430;2023-08-06T02:51:37;100514.31;;;15.03;100.00
71774;BME280;59607;52.130;5.430;2023-08-06T02:54:05;100506.78;;;15.07;100.00
71774;BME280;59607;52.130;5.430;2023-08-06T02:56:32;100509.03;;;15.03;100.00
71774;BME280;59607;52.130;5.430;2023-08-06T02:58:59;100506.19;;;15.05;100.00
71774;BME280;59607;52.130;5.430;2023-08-06T03:01:26;100502.53;;;15.06;100.00
71774;BME280;59607;52.130;5.430;2023-08-06T03:03:57;100503.94;;;15.09;100.00
71774;BME280;59607;52.130;5.430;2023-08-06T03:06:23;100497.03;;;15.08;100.00
71774;BME280;59607;52.130;5.430;2023-08-06T03:08:49;100498.66;;;15.09;100.00
71774;BME280;59607;52.130;5.430;2023-08-06T03:11:21;100497.84;;;15.08;100.00
71774;BME280;59607;52.130;5.430;2023-08-06T03:13:48;100496.84;;;15.09;100.00
71774;BME280;59607;52.130;5.430;2023-08-06T03:16:18;100495.22;;;15.08;100.00
71774;BME280;59607;52.130;5.430;2023-08-06T03:18:44;100494.19;;;15.09;100.00
71774;BME280;59607;52.130;5.430;2023-08-06T03:21:11;100495.22;;;15.08;100.00
71774;BME280;59607;52.130;5.430;2023-08-06T03:23:37;100498.84;;;15.07;100.00
71774;BME280;59607;52.130;5.430;2023-08-06T03:26:10;100499.06;;;15.05;100.00
71774;BME280;59607;52.130;5.430;2023-08-06T03:28:36;100504.13;;;15.07;100.00
71774;BME280;59607;52.130;5.430;2023-08-06T03:31:06;100500.72;;;15.07;100.00
71774;BME280;59607;52.130;5.430;2023-08-06T03:33:32;100503.16;;;15.08;100.00
71774;BME280;59607;52.130;5.430;2023-08-06T03:35:59;100492.97;;;15.05;100.00
71774;BME280;59607;52.130;5.430;2023-08-06T03:38:35;100497.03;;;15.08;100.00
71774;BME280;59607;52.130;5.430;2023-08-06T03:41:01;100492.78;;;15.07;100.00
71774;BME280;59607;52.130;5.430;2023-08-06T03:43:28;100496.41;;;15.05;100.00
71774;BME280;59607;52.130;5.430;2023-08-06T03:46:00;100502.94;;;15.03;100.00
71774;BME280;59607;52.130;5.430;2023-08-06T03:48:27;100496.81;;;15.02;100.00
71774;BME280;59607;52.130;5.430;2023-08-06T03:50:57;100503.53;;;15.05;100.00
71774;BME280;59607;52.130;5.430;2023-08-06T03:53:32;100504.75;;;15.02;100.00
71774;BME280;59607;52.130;5.430;2023-08-06T03:56:05;100500.28;;;15.03;100.00
71774;BME280;59607;52.130;5.430;2023-08-06T03:58:32;100506.19;;;15.05;100.00
71774;BME280;59607;52.130;5.430;2023-08-06T04:01:02;100504.53;;;15.04;100.00
71774;BME280;59607;52.130;5.430;2023-08-06T04:03:33;100500.28;;;15.03;100.00
71774;BME280;59607;52.130;5.430;2023-08-06T04:06:09;100500.91;;;15.05;100.00
71774;BME280;59607;52.130;5.430;2023-08-06T04:08:36;100499.47;;;15.02;100.00
71774;BME280;59607;52.130;5.430;2023-08-06T04:11:06;100500.28;;;15.03;100.00
71774;BME280;59607;52.130;5.430;2023-08-06T04:13:32;100497.66;;;15.03;100.00
71774;BME280;59607;52.130;5.430;2023-08-06T04:16:06;100500.50;;;15.01;100.00
71774;BME280;59607;52.130;5.430;2023-08-06T04:18:35;100496.41;;;14.99;100.00
71774;BME280;59607;52.130;5.430;2023-08-06T04:21:02;100506.16;;;14.98;100.00
71774;BME280;59607;52.130;5.430;2023-08-06T04:23:29;100501.09;;;14.97;100.00
71774;BME280;59607;52.130;5.430;2023-08-06T04:26:01;100502.91;;;14.96;100.00
71774;BME280;59607;52.130;5.430;2023-08-06T04:28:27;100502.50;;;14.99;100.00
71774;BME280;59607;52.130;5.430;2023-08-06T04:30:58;100506.59;;;15.02;100.00
71774;BME280;59607;52.130;5.430;2023-08-06T04:33:27;100513.69;;;15.01;100.00
71774;BME280;59607;52.130;5.430;2023-08-06T04:35:54;100512.06;;;15.07;100.00
71774;BME280;59607;52.130;5.430;2023-08-06T04:38:30;100517.13;;;15.09;100.00
71774;BME280;59607;52.130;5.430;2023-08-06T04:41:02;100515.31;;;15.09;100.00
71774;BME280;59607;52.130;5.430;2023-08-06T04:43:29;100517.75;;;15.11;100.00
71774;BME280;59607;52.130;5.430;2023-08-06T04:45:55;100518.19;;;15.14;100.00
71774;BME280;59607;52.130;5.430;2023-08-06T04:48:26;100523.25;;;15.16;100.00
71774;BME280;59607;52.130;5.430;2023-08-06T04:50:52;100524.69;;;15.18;100.00
71774;BME280;59607;52.130;5.430;2023-08-06T04:53:19;100526.91;;;15.22;100.00
71774;BME280;59607;52.130;5.430;2023-08-06T04:55:45;100519.00;;;15.22;100.00
71774;BME280;59607;52.130;5.430;2023-08-06T04:58:18;100525.31;;;15.27;100.00
71774;BME280;59607;52.130;5.430;2023-08-06T05:00:44;100528.16;;;15.26;100.00
71774;BME280;59607;52.130;5.430;2023-08-06T05:03:14;100524.91;;;15.30;100.00
71774;BME280;59607;52.130;5.430;2023-08-06T05:05:46;100528.97;;;15.33;100.00
71774;BME280;59607;52.130;5.430;2023-08-06T05:08:21;100535.69;;;15.36;100.00
71774;BME280;59607;52.130;5.430;2023-08-06T05:10:47;100536.31;;;15.31;100.00
71774;BME280;59607;52.130;5.430;2023-08-06T05:13:17;100541.59;;;15.31;100.00
71774;BME280;59607;52.130;5.430;2023-08-06T05:15:49;100543.41;;;15.30;100.00
71774;BME280;59607;52.130;5.430;2023-08-06T05:18:15;100546.25;;;15.29;100.00
71774;BME280;59607;52.130;5.430;2023-08-06T05:20:56;100550.09;;;15.33;100.00
71774;BME280;59607;52.130;5.430;2023-08-06T05:23:37;100556.41;;;15.32;100.00
71774;BME280;59607;52.130;5.430;2023-08-06T05:26:10;100560.88;;;15.32;100.00
71774;BME280;59607;52.130;5.430;2023-08-06T05:28:36;100565.38;;;15.31;100.00
71774;BME280;59607;52.130;5.430;2023-08-06T05:31:06;100562.09;;;15.29;100.00
71774;BME280;59607;52.130;5.430;2023-08-06T05:33:36;100566.97;;;15.32;100.00
71774;BME280;59607;52.130;5.430;2023-08-06T05:36:03;100561.06;;;15.30;100.00
71774;BME280;59607;52.130;5.430;2023-08-06T05:38:33;100560.88;;;15.32;100.00
71774;BME280;59607;52.130;5.430;2023-08-06T05:41:03;100564.53;;;15.30;100.00
71774;BME280;59607;52.130;5.430;2023-08-06T05:43:32;100571.44;;;15.32;100.00
71774;BME280;59607;52.130;5.430;2023-08-06T05:46:06;100578.56;;;15.31;100.00
71774;BME280;59607;52.130;5.430;2023-08-06T05:48:43;100579.16;;;15.33;100.00
71774;BME280;59607;52.130;5.430;2023-08-06T05:51:10;100586.88;;;15.35;100.00
71774;BME280;59607;52.130;5.430;2023-08-06T05:53:44;100581.22;;;15.31;100.00
71774;BME280;59607;52.130;5.430;2023-08-06T05:56:14;100586.09;;;15.27;100.00
71774;BME280;59607;52.130;5.430;2023-08-06T05:58:47;100583.03;;;15.30;100.00
71774;BME280;59607;52.130;5.430;2023-08-06T06:01:14;100592.56;;;15.32;100.00
71774;BME280;59607;52.130;5.430;2023-08-06T06:03:43;100588.34;;;15.37;100.00
71774;BME280;59607;52.130;5.430;2023-08-06T06:06:11;100594.22;;;15.39;100.00
71774;BME280;59607;52.130;5.430;2023-08-06T06:08:37;100594.03;;;15.48;100.00
71774;BME280;59607;52.130;5.430;2023-08-06T06:11:06;100589.97;;;15.52;100.00
71774;BME280;59607;52.130;5.430;2023-08-06T06:13:34;100604.00;;;15.52;100.00
71774;BME280;59607;52.130;5.430;2023-08-06T06:16:00;100603.59;;;15.49;100.00
71774;BME280;59607;52.130;5.430;2023-08-06T06:18:27;100609.09;;;15.47;100.00
71774;BME280;59607;52.130;5.430;2023-08-06T06:21:00;100614.19;;;15.49;100.00
71774;BME280;59607;52.130;5.430;2023-08-06T06:23:26;100611.34;;;15.50;100.00
71774;BME280;59607;52.130;5.430;2023-08-06T06:25:56;100610.94;;;15.53;100.00
71774;BME280;59607;52.130;5.430;2023-08-06T06:28:22;100613.78;;;15.59;100.00
71774;BME280;59607;52.130;5.430;2023-08-06T06:30:49;100618.44;;;15.57;100.00
71774;BME280;59607;52.130;5.430;2023-08-06T06:33:26;100627.19;;;15.57;100.00
71774;BME280;59607;52.130;5.430;2023-08-06T06:35:54;100618.44;;;15.57;100.00
71774;BME280;59607;52.130;5.430;2023-08-06T06:38:23;100625.16;;;15.59;100.00
71774;BME280;59607;52.130;5.430;2023-08-06T06:40:58;100628.63;;;15.60;100.00
71774;BME280;59607;52.130;5.430;2023-08-06T06:43:31;100641.22;;;15.64;100.00
71774;BME280;59607;52.130;5.430;2023-08-06T06:45:58;100632.47;;;15.57;100.00
71774;BME280;59607;52.130;5.430;2023-08-06T06:48:29;100632.06;;;15.53;100.00
71774;BME280;59607;52.130;5.430;2023-08-06T06:50:58;100634.31;;;15.57;100.00
71774;BME280;59607;52.130;5.430;2023-08-06T06:53:31;100635.09;;;15.57;100.00
71774;BME280;59607;52.130;5.430;2023-08-06T06:56:06;100635.72;;;15.59;100.00
71774;BME280;59607;52.130;5.430;2023-08-06T06:58:48;100634.09;;;15.58;100.00
71774;BME280;59607;52.130;5.430;2023-08-06T07:01:19;100636.13;;;15.56;100.00
71774;BME280;59607;52.130;5.430;2023-08-06T07:03:45;100638.16;;;15.61;100.00
71774;BME280;59607;52.130;5.430;2023-08-06T07:06:12;100639.00;;;15.61;100.00
71774;BME280;59607;52.130;5.430;2023-08-06T07:08:45;100635.75;;;15.66;100.00
71774;BME280;59607;52.130;5.430;2023-08-06T07:11:13;100635.53;;;15.67;100.00
71774;BME280;59607;52.130;5.430;2023-08-06T07:13:57;100640.63;;;15.69;100.00
71774;BME280;59607;52.130;5.430;2023-08-06T07:16:32;100642.84;;;15.65;100.00
71774;BME280;59607;52.130;5.430;2023-08-06T07:19:10;100638.19;;;15.74;100.00
71774;BME280;59607;52.130;5.430;2023-08-06T07:21:36;100636.97;;;15.84;100.00
71774;BME280;59607;52.130;5.430;2023-08-06T07:24:06;100648.19;;;15.93;100.00
71774;BME280;59607;52.130;5.430;2023-08-06T07:26:32;100646.75;;;15.97;100.00
71774;BME280;59607;52.130;5.430;2023-08-06T07:28:59;100651.41;;;15.95;100.00
71774;BME280;59607;52.130;5.430;2023-08-06T07:31:26;100652.03;;;15.90;100.00
71774;BME280;59607;52.130;5.430;2023-08-06T07:33:58;100655.31;;;15.99;100.00
71774;BME280;59607;52.130;5.430;2023-08-06T07:36:24;100652.69;;;16.06;100.00
71774;BME280;59607;52.130;5.430;2023-08-06T07:38:53;100650.03;;;16.06;100.00
71774;BME280;59607;52.130;5.430;2023-08-06T07:41:30;100655.13;;;16.07;100.00
71774;BME280;59607;52.130;5.430;2023-08-06T07:44:01;100648.59;;;16.23;100.00
71774;BME280;59607;52.130;5.430;2023-08-06T07:46:28;100656.13;;;16.26;100.00
71774;BME280;59607;52.130;5.430;2023-08-06T07:48:58;100662.84;;;16.29;100.00
71774;BME280;59607;52.130;5.430;2023-08-06T07:51:27;100656.13;;;16.26;100.00
71774;BME280;59607;52.130;5.430;2023-08-06T07:53:55;100654.91;;;16.29;100.00
71774;BME280;59607;52.130;5.430;2023-08-06T07:56:36;100656.13;;;16.20;100.00
71774;BME280;59607;52.130;5.430;2023-08-06T07:59:11;100656.75;;;16.22;100.00
71774;BME280;59607;52.130;5.430;2023-08-06T08:01:37;100656.13;;;16.20;100.00
71774;BME280;59607;52.130;5.430;2023-08-06T08:04:06;100658.16;;;16.18;100.00
71774;BME280;59607;52.130;5.430;2023-08-06T08:06:33;100658.56;;;16.28;100.00
71774;BME280;59607;52.130;5.430;2023-08-06T08:09:00;100658.16;;;16.31;100.00
71774;BME280;59607;52.130;5.430;2023-08-06T08:11:30;100664.69;;;16.15;100.00
71774;BME280;59607;52.130;5.430;2023-08-06T08:13:57;100660.22;;;16.09;100.00
71774;BME280;59607;52.130;5.430;2023-08-06T08:16:23;100665.50;;;16.15;100.00
71774;BME280;59607;52.130;5.430;2023-08-06T08:18:50;100664.06;;;16.26;100.00
71774;BME280;59607;52.130;5.430;2023-08-06T08:21:16;100662.63;;;16.31;100.00
71774;BME280;59607;52.130;5.430;2023-08-06T08:23:48;100668.94;;;16.30;100.00
71774;BME280;59607;52.130;5.430;2023-08-06T08:26:23;100671.59;;;16.23;100.00
71774;BME280;59607;52.130;5.430;2023-08-06T08:28:50;100672.41;;;16.16;100.00
71774;BME280;59607;52.130;5.430;2023-08-06T08:31:27;100676.69;;;16.18;100.00
71774;BME280;59607;52.130;5.430;2023-08-06T08:33:56;100677.72;;;16.16;100.00
71774;BME280;59607;52.130;5.430;2023-08-06T08:36:28;100676.88;;;16.16;100.00
71774;BME280;59607;52.130;5.430;2023-08-06T08:38:54;100677.09;;;16.08;100.00
71774;BME280;59607;52.130;5.430;2023-08-06T08:41:31;100687.44;;;15.96;100.00
71774;BME280;59607;52.130;5.430;2023-08-06T08:43:58;100686.41;;;15.90;100.00
71774;BME280;59607;52.130;5.430;2023-08-06T08:46:38;100691.28;;;15.79;100.00
71774;BME280;59607;52.130;5.430;2023-08-06T08:49:17;100695.13;;;15.77;100.00
71774;BME280;59607;52.130;5.430;2023-08-06T08:51:45;100697.19;;;15.75;100.00
71774;BME280;59607;52.130;5.430;2023-08-06T08:54:26;100693.53;;;15.76;100.00
71774;BME280;59607;52.130;5.430;2023-08-06T08:56:59;100698.38;;;15.72;100.00
71774;BME280;59607;52.130;5.430;2023-08-06T08:59:26;100698.59;;;15.71;100.00
71774;BME280;59607;52.130;5.430;2023-08-06T09:01:53;100699.19;;;15.66;100.00
71774;BME280;59607;52.130;5.430;2023-08-06T09:04:29;100707.53;;;15.70;100.00
71774;BME280;59607;52.130;5.430;2023-08-06T09:07:08;100708.56;;;15.75;100.00
71774;BME280;59607;52.130;5.430;2023-08-06T09:09:41;100710.59;;;15.80;100.00
71774;BME280;59607;52.130;5.430;2023-08-06T09:12:19;100710.19;;;15.83;100.00
71774;BME280;59607;52.130;5.430;2023-08-06T09:14:48;100716.94;;;15.86;100.00
71774;BME280;59607;52.130;5.430;2023-08-06T09:17:14;100716.72;;;15.81;100.00
71774;BME280;59607;52.130;5.430;2023-08-06T09:19:52;100717.53;;;15.81;100.00
71774;BME280;59607;52.130;5.430;2023-08-06T09:22:18;100716.09;;;15.78;100.00
71774;BME280;59607;52.130;5.430;2023-08-06T09:24:44;100729.91;;;15.74;100.00
71774;BME280;59607;52.130;5.430;2023-08-06T09:27:15;100733.78;;;15.71;100.00
71774;BME280;59607;52.130;5.430;2023-08-06T09:29:44;100736.63;;;15.70;100.00
71774;BME280;59607;52.130;5.430;2023-08-06T09:32:17;100730.75;;;15.74;100.00
71774;BME280;59607;52.130;5.430;2023-08-06T09:34:45;100742.75;;;15.77;100.00
71774;BME280;59607;52.130;5.430;2023-08-06T09:37:16;100740.72;;;15.79;100.00
71774;BME280;59607;52.130;5.430;2023-08-06T09:39:45;100743.97;;;15.81;100.00
71774;BME280;59607;52.130;5.430;2023-08-06T09:42:14;100747.22;;;15.83;100.00
71774;BME280;59607;52.130;5.430;2023-08-06T09:44:44;100752.72;;;15.88;100.00
71774;BME280;59607;52.130;5.430;2023-08-06T09:47:11;100756.41;;;15.94;100.00
71774;BME280;59607;52.130;5.430;2023-08-06T09:49:42;100763.59;;;16.00;100.00
71774;BME280;59607;52.130;5.430;2023-08-06T09:52:14;100755.03;;;15.98;100.00
71774;BME280;59607;52.130;5.430;2023-08-06T09:54:56;100759.28;;;15.99;100.00
71774;BME280;59607;52.130;5.430;2023-08-06T09:57:35;100767.78;;;15.95;100.00
71774;BME280;59607;52.130;5.430;2023-08-06T10:00:07;100756.63;;;15.93;100.00
71774;BME280;59607;52.130;5.430;2023-08-06T10:02:39;100770.66;;;15.93;100.00
71774;BME280;59607;52.130;5.430;2023-08-06T10:05:10;100770.91;;;15.98;100.00
71774;BME280;59607;52.130;5.430;2023-08-06T10:07:39;100776.81;;;16.00;100.00
71774;BME280;59607;52.130;5.430;2023-08-06T10:10:06;100777.44;;;16.02;100.00
71774;BME280;59607;52.130;5.430;2023-08-06T10:12:48;100780.66;;;15.98;100.00
71774;BME280;59607;52.130;5.430;2023-08-06T10:15:26;100784.94;;;16.12;100.00
71774;BME280;59607;52.130;5.430;2023-08-06T10:18:11;100792.31;;;16.17;100.00
71774;BME280;59607;52.130;5.430;2023-08-06T10:20:42;100789.47;;;16.19;100.00
71774;BME280;59607;52.130;5.430;2023-08-06T10:23:09;100796.78;;;16.23;100.00
71774;BME280;59607;52.130;5.430;2023-08-06T10:25:53;100787.00;;;16.24;100.00
71774;BME280;59607;52.130;5.430;2023-08-06T10:28:42;100787.00;;;16.24;100.00
71774;BME280;59607;52.130;5.430;2023-08-06T10:31:11;100792.50;;;16.29;100.00
71774;BME280;59607;52.130;5.430;2023-08-06T10:33:45;100785.81;;;16.33;100.00
71774;BME280;59607;52.130;5.430;2023-08-06T10:36:15;100789.88;;;16.43;100.00
71774;BME280;59607;52.130;5.430;2023-08-06T10:38:51;100793.53;;;16.48;100.00
71774;BME280;59607;52.130;5.430;2023-08-06T10:41:28;100784.19;;;16.52;100.00
71774;BME280;59607;52.130;5.430;2023-08-06T10:44:11;100793.56;;;16.62;100.00
71774;BME280;59607;52.130;5.430;2023-08-06T10:46:41;100789.47;;;16.66;100.00
71774;BME280;59607;52.130;5.430;2023-08-06T10:49:12;100787.84;;;16.65;100.00
71774;BME280;59607;52.130;5.430;2023-08-06T10:51:44;100786.63;;;16.61;100.00
71774;BME280;59607;52.130;5.430;2023-08-06T10:54:21;100786.63;;;16.54;100.00
71774;BME280;59607;52.130;5.430;2023-08-06T10:56:48;100787.84;;;16.45;100.00
71774;BME280;59607;52.130;5.430;2023-08-06T10:59:17;100801.47;;;16.48;100.00
71774;BME280;59607;52.130;5.430;2023-08-06T11:01:48;100798.84;;;16.48;100.00
71774;BME280;59607;52.130;5.430;2023-08-06T11:04:15;100802.72;;;16.46;100.00
71774;BME280;59607;52.130;5.430;2023-08-06T11:06:52;100804.94;;;16.49;100.00
71774;BME280;59607;52.130;5.430;2023-08-06T11:09:27;100811.25;;;16.55;100.00
71774;BME280;59607;52.130;5.430;2023-08-06T11:11:54;100806.38;;;16.58;100.00
71774;BME280;59607;52.130;5.430;2023-08-06T11:14:30;100813.50;;;16.58;100.00
71774;BME280;59607;52.130;5.430;2023-08-06T11:16:57;100815.34;;;16.64;100.00
71774;BME280;59607;52.130;5.430;2023-08-06T11:19:27;100816.34;;;16.56;100.00
71774;BME280;59607;52.130;5.430;2023-08-06T11:21:54;100824.50;;;16.55;100.00
71774;BME280;59607;52.130;5.430;2023-08-06T11:24:23;100823.91;;;16.52;100.00
71774;BME280;59607;52.130;5.430;2023-08-06T11:27:22;100822.47;;;16.50;100.00
71774;BME280;59607;52.130;5.430;2023-08-06T11:29:59;100827.56;;;16.45;100.00
71774;BME280;59607;52.130;5.430;2023-08-06T11:32:25;100833.25;;;16.35;100.00
71774;BME280;59607;52.130;5.430;2023-08-06T11:35:15;100826.50;;;16.32;100.00
71774;BME280;59607;52.130;5.430;2023-08-06T11:37:46;100830.78;;;16.26;100.00
71774;BME280;59607;52.130;5.430;2023-08-06T11:40:18;100839.75;;;16.19;100.00
71774;BME280;59607;52.130;5.430;2023-08-06T11:42:50;100838.09;;;16.18;100.00
71774;BME280;59607;52.130;5.430;2023-08-06T11:45:22;100838.69;;;16.13;100.00
71774;BME280;59607;52.130;5.430;2023-08-06T11:47:51;100843.16;;;16.06;100.00
71774;BME280;59607;52.130;5.430;2023-08-06T11:50:30;100844.56;;;16.01;100.00
71774;BME280;59607;52.130;5.430;2023-08-06T11:52:58;100837.38;;;15.88;100.00
71774;BME280;59607;52.130;5.430;2023-08-06T11:55:31;100835.31;;;15.84;100.00
71774;BME280;59607;52.130;5.430;2023-08-06T11:57:58;100842.03;;;15.79;100.00
71774;BME280;59607;52.130;5.430;2023-08-06T12:00:36;100836.94;;;15.78;100.00
71774;BME280;59607;52.130;5.430;2023-08-06T12:03:04;100842.44;;;15.76;100.00
71774;BME280;59607;52.130;5.430;2023-08-06T12:05:37;100841.59;;;15.76;100.00
71774;BME280;59607;52.130;5.430;2023-08-06T12:08:05;100842.63;;;15.75;100.00
71774;BME280;59607;52.130;5.430;2023-08-06T12:10:34;100840.34;;;15.72;100.00
71774;BME280;59607;52.130;5.430;2023-08-06T12:13:03;100840.34;;;15.72;100.00
71774;BME280;59607;52.130;5.430;2023-08-06T12:15:36;100845.28;;;15.75;100.00
71774;BME280;59607;52.130;5.430;2023-08-06T12:18:02;100844.88;;;15.78;100.00
71774;BME280;59607;52.130;5.430;2023-08-06T12:20:29;100863.19;;;15.79;100.00
71774;BME280;59607;52.130;5.430;2023-08-06T12:22:55;100863.63;;;15.90;100.00
71774;BME280;59607;52.130;5.430;2023-08-06T12:25:22;100867.31;;;15.96;100.00
71774;BME280;59607;52.130;5.430;2023-08-06T12:27:52;100872.88;;;16.01;100.00
71774;BME280;59607;52.130;5.430;2023-08-06T12:30:18;100869.44;;;16.07;100.00
71774;BME280;59607;52.130;5.430;2023-08-06T12:32:45;100870.25;;;16.14;100.00
71774;BME280;59607;52.130;5.430;2023-08-06T12:35:11;100863.56;;;16.19;100.00
71774;BME280;59607;52.130;5.430;2023-08-06T12:37:38;100871.88;;;16.22;100.00
71774;BME280;59607;52.130;5.430;2023-08-06T12:40:26;100874.13;;;16.25;100.00
71774;BME280;59607;52.130;5.430;2023-08-06T12:43:07;100880.06;;;16.27;100.00
71774;BME280;59607;52.130;5.430;2023-08-06T12:45:36;100887.78;;;16.29;100.00
71774;BME280;59607;52.130;5.430;2023-08-06T12:48:03;100884.75;;;16.32;100.00
71774;BME280;59607;52.130;5.430;2023-08-06T12:50:33;100883.16;;;16.38;100.00
71774;BME280;59607;52.130;5.430;2023-08-06T12:53:02;100894.13;;;16.41;100.00
71774;BME280;59607;52.130;5.430;2023-08-06T12:55:30;100895.16;;;16.40;100.00
71774;BME280;59607;52.130;5.430;2023-08-06T12:58:04;100897.19;;;16.38;100.00
71774;BME280;59607;52.130;5.430;2023-08-06T13:00:32;100901.47;;;16.39;100.00